»·PEaware :: N74KW 49X-L22

N74KW :: 49X-L22

FLIGHT INFORMATION

Flight Status: Arrived
Operator: Privately registered:
United States
More flights under this callsign
Pilot: Charles C. (26995)
Aircraft: MCDONNELL-DOUGLAS SKYTRAIN C-47
(DC3)
More flights by this aircraft type
Origin: 49X Chemehuevi Valley
United States
Destination: L22 Yucca Valley
United States
More flights between these airports :: More routes between these airports
Route: TNP
File this flight plan on PilotEdge
Remarks:
Altitude:
(Current/Filed)
6,500ft
Speed:
(Current/Filed)
150kts
Departed: 06-Aug-20 12:03 PM
Arrived: 06-Aug-20 12:52 PM
Distance/Time
Traveled:
101nm/0:49
Distance/Time
To Go:
Arrived

Flight Plot

Page will automatically refresh every two minutes.

Flight plan parsing failed; only flown route is shown


Map Options




Map Legend


Flown Route
Filed Route
Departure Airport
Arrival Airport
Navaid (VOR, NDB)
Fix

Horizontal Profiles

Position Reports

Time Latitude Longitude Heading Altitude Ground
Speed
06-Aug-20 11:59 34.529417 -114.430281 179 625ft 0kts
06-Aug-20 12:00 34.529199 -114.430667 241 626ft 8kts
06-Aug-20 12:01 34.534041 -114.430967 5 626ft 22kts
06-Aug-20 12:02 34.531405 -114.431978 180 629ft 74kts
06-Aug-20 12:03 34.511240 -114.446996 256 1164ft 120kts
06-Aug-20 12:05 34.504437 -114.484834 247 1832ft 114kts
06-Aug-20 12:06 34.493468 -114.520830 244 2380ft 117kts
06-Aug-20 12:07 34.488587 -114.557780 295 3028ft 114kts
06-Aug-20 12:08 34.486935 -114.596545 254 3650ft 118kts
06-Aug-20 12:09 34.478183 -114.634504 249 4340ft 115kts
06-Aug-20 12:10 34.467170 -114.672266 247 4973ft 119kts
06-Aug-20 12:11 34.457836 -114.709856 247 5657ft 115kts
06-Aug-20 12:12 34.446879 -114.746080 242 6275ft 113kts
06-Aug-20 12:13 34.432651 -114.783625 239 6495ft 139kts
06-Aug-20 12:14 34.414910 -114.827878 240 6486ft 148kts
06-Aug-20 12:15 34.396904 -114.872766 240 6488ft 148kts
06-Aug-20 12:16 34.378710 -114.917653 240 6488ft 148kts
06-Aug-20 12:17 34.360443 -114.962707 240 6486ft 149kts
06-Aug-20 12:18 34.342312 -115.007571 240 6507ft 148kts
06-Aug-20 12:19 34.324180 -115.052293 240 6530ft 147kts
06-Aug-20 12:20 34.306173 -115.097033 240 6552ft 148kts
06-Aug-20 12:21 34.288109 -115.141877 240 6574ft 148kts
06-Aug-20 12:21 34.275526 -115.180564 247 6593ft 149kts
06-Aug-20 12:23 34.262317 -115.237418 253 6607ft 153kts
06-Aug-20 12:23 34.253657 -115.279445 253 6606ft 155kts
06-Aug-20 12:24 34.243203 -115.330438 253 6606ft 156kts
06-Aug-20 12:26 34.230883 -115.390071 253 6606ft 157kts
06-Aug-20 12:26 34.221996 -115.432959 253 6606ft 157kts
06-Aug-20 12:27 34.211404 -115.484433 253 6606ft 158kts
06-Aug-20 12:28 34.196483 -115.533903 243 6623ft 155kts
06-Aug-20 12:29 34.178218 -115.581419 243 6612ft 157kts
06-Aug-20 12:30 34.159738 -115.629416 243 6606ft 157kts
06-Aug-20 12:31 34.139120 -115.675840 242 6606ft 157kts
06-Aug-20 12:32 34.123927 -115.726925 252 6460ft 164kts
06-Aug-20 12:33 34.113471 -115.780167 266 6451ft 163kts
06-Aug-20 12:34 34.116450 -115.834549 272 6459ft 162kts
06-Aug-20 12:35 34.119966 -115.888896 272 6459ft 162kts
06-Aug-20 12:36 34.123546 -115.942988 272 6459ft 161kts
06-Aug-20 12:37 34.127216 -115.996883 272 6384ft 160kts
06-Aug-20 12:38 34.133781 -116.050625 278 6153ft 161kts
06-Aug-20 12:39 34.140863 -116.103863 276 5937ft 168kts
06-Aug-20 12:40 34.148193 -116.162869 276 5383ft 185kts
06-Aug-20 12:41 34.155329 -116.225259 277 4842ft 189kts
06-Aug-20 12:42 34.162065 -116.288989 277 4229ft 184kts
06-Aug-20 12:43 34.162233 -116.345299 261 4223ft 155kts
06-Aug-20 12:44 34.149864 -116.391636 246 3979ft 144kts
06-Aug-20 12:45 34.134235 -116.425550 209 3834ft 98kts
06-Aug-20 12:46 34.118876 -116.449290 241 3639ft 94kts
06-Aug-20 12:47 34.123625 -116.445616 92 3984ft 95kts
06-Aug-20 12:48 34.122642 -116.412981 82 4137ft 112kts
06-Aug-20 12:49 34.126284 -116.376093 23 3908ft 112kts
06-Aug-20 12:50 34.131593 -116.401348 250 3223ft 77kts
06-Aug-20 12:51 34.128645 -116.409653 274 3226ft 2kts
06-Aug-20 12:52 34.128649 -116.409704 308 3226ft 0kts
06-Aug-20 12:53 34.128649 -116.409704 308 3226ft 0kts
06-Aug-20 12:54 34.128649 -116.409704 308 3226ft 0kts
06-Aug-20 12:55 34.128649 -116.409704 308 3226ft 0kts
06-Aug-20 12:56 34.128649 -116.409704 308 3226ft 0kts
06-Aug-20 12:57 34.128649 -116.409704 308 3226ft 0kts
06-Aug-20 12:58 34.128649 -116.409704 308 3226ft 0kts
06-Aug-20 12:59 34.128649 -116.409704 308 3226ft 0kts
06-Aug-20 13:00 34.128649 -116.409704 308 3226ft 0kts
06-Aug-20 13:01 34.128649 -116.409704 308 3226ft 0kts
06-Aug-20 13:02 34.128649 -116.409704 308 3226ft 0kts
06-Aug-20 13:03 34.128649 -116.409704 308 3226ft 0kts
06-Aug-20 13:04 34.128649 -116.409704 308 3226ft 0kts
06-Aug-20 13:05 34.128649 -116.409704 308 3226ft 0kts

Navigation Log

Ident Type
Flight plan parsing failed, navigation log unavailable